Historique des mesures à Cassis (13260), France
Quotidien Résumé Décembre 24, 2017 Unités:  Métrique    US   Métrique/US
« Précédent (Jour)
Suivant (Jour) »
Quotidien Hebdomadaire Mensuel Annuel Période au choix
  Maximum: Minimum: Moyenne:
Température: TemperatureC °C 5.9 °C 7.3 °C
Point de rosée: DewpointC °C 1.0 °C 2.5 °C
Humidité: Humidity % 67 % 68 %
Vitesse du vent: 0 km/h 0 km/h 0 km/h
Rafales: 0 km/h - -
Vent:- - North
Pression: PressurehPa hPa 1026.0 hPa -
Précipitations: 0.0 mm    
Historical Graphs
 
 
Mesures pour : Décembre 24, 2017
Heure Temperature Point de rosée Pression Vent Vitesse du vent Rafales Humidité Pluie (par heure) Conditions
TemperatureC °C DewpointC °C PressurehPa hPa Calm     Humidity % HourlyPrecipMM mm SoftwareType W/m2
00:10 8.6 °C 3.2 °C 1028.7 hPa Calm     69 % 0.0 mm open2300-1.11 W/m2
01:10 8.2 °C 2.7 °C 1028.3 hPa Calm     68 % 0.0 mm open2300-1.11 W/m2
02:10 8.1 °C 2.3 °C 1028.0 hPa Calm     67 % 0.0 mm open2300-1.11 W/m2
03:10 7.8 °C 2.1 °C 1028.0 hPa Calm     67 % 0.0 mm open2300-1.11 W/m2
04:11 7.6 °C 2.3 °C 1027.3 hPa Calm     69 % 0.0 mm open2300-1.11 W/m2
05:10 7.2 °C 1.7 °C 1027.0 hPa Calm     68 % 0.0 mm open2300-1.11 W/m2
06:10 6.5 °C 1.0 °C 1027.3 hPa Calm     68 % 0.0 mm open2300-1.11 W/m2
07:10 6.3 °C 1.1 °C 1027.3 hPa Calm     69 % 0.0 mm open2300-1.11 W/m2
08:10 5.9 °C 1.1 °C 1027.7 hPa Calm     71 % 0.0 mm open2300-1.11 W/m2
09:10 6.5 °C 1.2 °C 1027.7 hPa Calm     69 % 0.0 mm open2300-1.11 W/m2
10:10 7.5 °C 2.2 °C 1028.0 hPa Calm     69 % 0.0 mm open2300-1.11 W/m2
12:10 9.4 °C 4.0 °C 1028.0 hPa Calm     69 % 0.0 mm open2300-1.11 W/m2
13:10 9.8 °C 4.2 °C 1027.3 hPa Calm     68 % 0.0 mm open2300-1.11 W/m2
14:10 10.1 °C 4.4 °C 1026.6 hPa Calm     68 % 0.0 mm open2300-1.11 W/m2
16:10 9.8 °C 4.2 °C 1026.0 hPa Calm     68 % 0.0 mm open2300-1.11 W/m2
17:10 8.7 °C 3.9 °C 1026.3 hPa Calm     72 % 0.0 mm open2300-1.11 W/m2
18:10 7.6 °C 2.9 °C 1026.3 hPa Calm     72 % 0.0 mm open2300-1.11 W/m2
19:10 6.9 °C 2.6 °C 1026.6 hPa Calm     74 % 0.0 mm open2300-1.11 W/m2
20:10 6.6 °C 2.8 °C 1026.6 hPa Calm     77 % 0.0 mm open2300-1.11 W/m2
21:10 6.4 °C 2.8 °C 1026.6 hPa Calm     78 % 0.0 mm open2300-1.11 W/m2
22:10 6.1 °C 2.5 °C 1026.6 hPa Calm     78 % 0.0 mm open2300-1.11 W/m2
23:10 6.1 °C 2.9 °C 1026.6 hPa Calm     80 % 0.0 mm open2300-1.11 W/m2
Observations météo à CASSIS
WU-History script by Weather Underground - 1 mb